Langley Air Force Base
KLFI : now visible

Airfield :











YOU CAN JOIN US ON...

 
LOGIN :

Register | Disclaimer

   EN    FR    IT 

 









Legend :    VFR   Marginal VFR   IFR   Intensive IFR   Very Intensive IFR
Visi :
Ceiling :
>= 8 km
>= 3000ft
5 to 8 km
1000 to 3000 ft
1500m to 5 km
500 to 1000 ft
800 to 1500m
200 to 500 ft
< 800m
< 200 ft
Symbols :   Thunderstorms  Fog  Heavy snow  Heavy precipitations  Wind > 20 kt







- Airport Elevation : 11 ft


KLFI - Langley Air Force Base

CURRENT METAR :
  • 200956Z AUTO 00000KT 10SM CLR 11/11 A3030 RMK AO2 SLP267 T01130111 $

EXPIRED METARs :
  • 200856Z 00000KT 10SM FEW040 12/12 A3029 RMK AO2A SLP264 T01200118 53002 $
  • 200756Z 00000KT 7SM FEW040 12/12 A3028 RMK AO2A SLP260 T01220120 $

TAF TAF KLFI
Valid from the 20 at 09:00 until the 21 at 15:00 UTC


200900Z 2009/2115 VRB06KT 9999 FEW040 QNH3023INS TX24/2020Z TN12/2009Z
No reported NOTAMs for that airfield.



MET'MAP, your aeronautical weather chart ! - Copyright ORBIFLY December 2007 - Disclaimer

ORBIFLY MET'MAP TEAM :

Programming & Development : Alexandra Zaïnal
Concept & Development : Baudouin d'Aumeries
Co-Development & Prog : Marc-Olivier Méhu
Technical & hardware support : Manuel Goepfert

Contact : metmap@orbifly.com




SOURCES & CREDITS :

   NOAA       Earth
Advisory